sensor_id;sensor_type;location;lat;lon;timestamp;pressure;altitude;pressure_sealevel;temperature;humidity
56992;BME280;42885;49.754;18.636;2022-09-28T00:00:39;96729.16;;;11.42;100.00
56992;BME280;42885;49.754;18.636;2022-09-28T00:03:12;96726.11;;;11.37;100.00
56992;BME280;42885;49.754;18.636;2022-09-28T00:05:43;96729.75;;;11.40;100.00
56992;BME280;42885;49.754;18.636;2022-09-28T00:08:13;96727.48;;;11.31;100.00
56992;BME280;42885;49.754;18.636;2022-09-28T00:10:53;96733.81;;;11.28;100.00
56992;BME280;42885;49.754;18.636;2022-09-28T00:13:19;96730.42;;;11.22;100.00
56992;BME280;42885;49.754;18.636;2022-09-28T00:16:07;96730.77;;;11.23;100.00
56992;BME280;42885;49.754;18.636;2022-09-28T00:18:39;96727.33;;;11.23;100.00
56992;BME280;42885;49.754;18.636;2022-09-28T00:21:15;96727.42;;;11.01;100.00
56992;BME280;42885;49.754;18.636;2022-09-28T00:23:46;96726.45;;;11.03;100.00
56992;BME280;42885;49.754;18.636;2022-09-28T00:26:35;96723.50;;;11.01;100.00
56992;BME280;42885;49.754;18.636;2022-09-28T00:29:08;96721.78;;;11.06;100.00
56992;BME280;42885;49.754;18.636;2022-09-28T00:31:40;96725.55;;;10.98;100.00
56992;BME280;42885;49.754;18.636;2022-09-28T00:34:11;96718.84;;;10.90;100.00
56992;BME280;42885;49.754;18.636;2022-09-28T00:36:44;96721.14;;;10.83;100.00
56992;BME280;42885;49.754;18.636;2022-09-28T00:39:16;96716.63;;;10.85;100.00
56992;BME280;42885;49.754;18.636;2022-09-28T00:41:47;96716.53;;;10.81;100.00
56992;BME280;42885;49.754;18.636;2022-09-28T00:44:33;96714.42;;;10.90;100.00
56992;BME280;42885;49.754;18.636;2022-09-28T00:47:25;96722.62;;;10.91;100.00
56992;BME280;42885;49.754;18.636;2022-09-28T00:50:28;96716.97;;;10.86;100.00
56992;BME280;42885;49.754;18.636;2022-09-28T00:53:03;96717.84;;;10.81;100.00
56992;BME280;42885;49.754;18.636;2022-09-28T00:55:34;96724.08;;;10.90;100.00
56992;BME280;42885;49.754;18.636;2022-09-28T00:58:07;96718.52;;;11.24;100.00
56992;BME280;42885;49.754;18.636;2022-09-28T01:00:39;96716.73;;;10.99;100.00
56992;BME280;42885;49.754;18.636;2022-09-28T01:03:11;96723.08;;;10.81;100.00
56992;BME280;42885;49.754;18.636;2022-09-28T01:05:43;96721.93;;;10.89;100.00
56992;BME280;42885;49.754;18.636;2022-09-28T01:08:14;96727.85;;;10.91;100.00
56992;BME280;42885;49.754;18.636;2022-09-28T01:10:48;96732.67;;;10.86;100.00
56992;BME280;42885;49.754;18.636;2022-09-28T01:13:22;96731.59;;;10.88;100.00
56992;BME280;42885;49.754;18.636;2022-09-28T01:16:16;96733.81;;;10.78;100.00
56992;BME280;42885;49.754;18.636;2022-09-28T01:19:00;96731.33;;;10.76;100.00
56992;BME280;42885;49.754;18.636;2022-09-28T01:21:24;96741.00;;;10.70;100.00
56992;BME280;42885;49.754;18.636;2022-09-28T01:24:18;96732.58;;;10.66;100.00
56992;BME280;42885;49.754;18.636;2022-09-28T01:27:09;96738.41;;;10.54;100.00
56992;BME280;42885;49.754;18.636;2022-09-28T01:29:48;96738.53;;;10.53;100.00
56992;BME280;42885;49.754;18.636;2022-09-28T01:32:31;96743.77;;;10.53;100.00
56992;BME280;42885;49.754;18.636;2022-09-28T01:35:14;96733.94;;;10.45;100.00
56992;BME280;42885;49.754;18.636;2022-09-28T01:37:54;96733.20;;;10.49;100.00
56992;BME280;42885;49.754;18.636;2022-09-28T01:40:26;96732.43;;;10.42;100.00
56992;BME280;42885;49.754;18.636;2022-09-28T01:43:06;96736.38;;;10.31;100.00
56992;BME280;42885;49.754;18.636;2022-09-28T01:45:54;96738.76;;;10.34;100.00
56992;BME280;42885;49.754;18.636;2022-09-28T01:48:32;96733.34;;;10.26;100.00
56992;BME280;42885;49.754;18.636;2022-09-28T01:50:58;96732.34;;;10.32;100.00
56992;BME280;42885;49.754;18.636;2022-09-28T01:53:35;96733.03;;;10.35;100.00
56992;BME280;42885;49.754;18.636;2022-09-28T01:56:31;96733.64;;;10.32;100.00
56992;BME280;42885;49.754;18.636;2022-09-28T01:58:58;96734.79;;;10.40;100.00
56992;BME280;42885;49.754;18.636;2022-09-28T02:01:43;96733.88;;;10.35;100.00
56992;BME280;42885;49.754;18.636;2022-09-28T02:04:17;96725.88;;;10.37;100.00
56992;BME280;42885;49.754;18.636;2022-09-28T02:06:54;96722.80;;;10.37;100.00
56992;BME280;42885;49.754;18.636;2022-09-28T02:10:09;96725.89;;;10.42;100.00
56992;BME280;42885;49.754;18.636;2022-09-28T02:12:22;96726.23;;;10.22;100.00
56992;BME280;42885;49.754;18.636;2022-09-28T02:14:54;96727.05;;;10.23;100.00
56992;BME280;42885;49.754;18.636;2022-09-28T02:17:27;96731.08;;;10.27;100.00
56992;BME280;42885;49.754;18.636;2022-09-28T02:19:58;96730.73;;;10.20;100.00
56992;BME280;42885;49.754;18.636;2022-09-28T02:22:49;96729.73;;;10.11;100.00
56992;BME280;42885;49.754;18.636;2022-09-28T02:25:38;96736.31;;;10.05;100.00
56992;BME280;42885;49.754;18.636;2022-09-28T02:28:12;96735.09;;;10.10;100.00
56992;BME280;42885;49.754;18.636;2022-09-28T02:30:44;96738.31;;;10.08;100.00
56992;BME280;42885;49.754;18.636;2022-09-28T02:33:27;96737.73;;;10.04;100.00
56992;BME280;42885;49.754;18.636;2022-09-28T02:35:59;96736.31;;;10.05;100.00
56992;BME280;42885;49.754;18.636;2022-09-28T02:38:31;96735.89;;;10.16;100.00
56992;BME280;42885;49.754;18.636;2022-09-28T02:46:56;96729.77;;;10.27;100.00
56992;BME280;42885;49.754;18.636;2022-09-28T02:49:30;96734.95;;;10.32;100.00
56992;BME280;42885;49.754;18.636;2022-09-28T02:52:40;96733.80;;;10.25;100.00
56992;BME280;42885;49.754;18.636;2022-09-28T02:57:51;96738.30;;;10.29;100.00
56992;BME280;42885;49.754;18.636;2022-09-28T03:00:21;96737.30;;;10.36;100.00
56992;BME280;42885;49.754;18.636;2022-09-28T03:06:02;96735.14;;;10.41;100.00
56992;BME280;42885;49.754;18.636;2022-09-28T03:08:48;96737.38;;;10.24;100.00
56992;BME280;42885;49.754;18.636;2022-09-28T03:11:41;96741.00;;;10.17;100.00
56992;BME280;42885;49.754;18.636;2022-09-28T03:14:07;96736.73;;;10.11;100.00
56992;BME280;42885;49.754;18.636;2022-09-28T03:16:43;96733.05;;;10.13;100.00
56992;BME280;42885;49.754;18.636;2022-09-28T03:19:16;96725.16;;;10.19;100.00
56992;BME280;42885;49.754;18.636;2022-09-28T03:21:48;96727.73;;;10.09;100.00
56992;BME280;42885;49.754;18.636;2022-09-28T03:24:19;96726.48;;;9.98;100.00
56992;BME280;42885;49.754;18.636;2022-09-28T03:26:50;96739.97;;;10.09;100.00
56992;BME280;42885;49.754;18.636;2022-09-28T03:29:20;96737.08;;;10.17;100.00
56992;BME280;42885;49.754;18.636;2022-09-28T03:31:53;96739.95;;;10.30;100.00
56992;BME280;42885;49.754;18.636;2022-09-28T03:34:24;96739.86;;;10.78;100.00
56992;BME280;42885;49.754;18.636;2022-09-28T03:36:56;96741.00;;;10.17;100.00
56992;BME280;42885;49.754;18.636;2022-09-28T03:39:27;96747.50;;;10.02;100.00
56992;BME280;42885;49.754;18.636;2022-09-28T03:41:59;96747.27;;;9.99;100.00
56992;BME280;42885;49.754;18.636;2022-09-28T03:44:32;96745.23;;;10.03;100.00
56992;BME280;42885;49.754;18.636;2022-09-28T03:47:03;96740.50;;;9.97;100.00
56992;BME280;42885;49.754;18.636;2022-09-28T03:49:34;96742.50;;;9.99;100.00
56992;BME280;42885;49.754;18.636;2022-09-28T03:52:05;96748.69;;;9.98;100.00
56992;BME280;42885;49.754;18.636;2022-09-28T03:54:36;96743.88;;;9.87;100.00
56992;BME280;42885;49.754;18.636;2022-09-28T03:57:07;96747.95;;;9.80;100.00
56992;BME280;42885;49.754;18.636;2022-09-28T03:59:38;96748.38;;;9.58;100.00
56992;BME280;42885;49.754;18.636;2022-09-28T04:02:09;96748.78;;;9.75;100.00
56992;BME280;42885;49.754;18.636;2022-09-28T04:04:39;96749.80;;;9.62;100.00
56992;BME280;42885;49.754;18.636;2022-09-28T04:07:10;96744.00;;;9.59;100.00
56992;BME280;42885;49.754;18.636;2022-09-28T04:09:41;96744.41;;;9.43;100.00
56992;BME280;42885;49.754;18.636;2022-09-28T04:12:12;96744.23;;;9.61;100.00
56992;BME280;42885;49.754;18.636;2022-09-28T04:14:43;96744.34;;;9.60;100.00
56992;BME280;42885;49.754;18.636;2022-09-28T04:17:13;96736.80;;;9.51;100.00
56992;BME280;42885;49.754;18.636;2022-09-28T04:19:45;96735.46;;;9.57;100.00
56992;BME280;42885;49.754;18.636;2022-09-28T04:22:23;96733.31;;;9.56;100.00
56992;BME280;42885;49.754;18.636;2022-09-28T04:24:55;96733.02;;;9.44;100.00
56992;BME280;42885;49.754;18.636;2022-09-28T04:27:26;96733.13;;;9.42;100.00
56992;BME280;42885;49.754;18.636;2022-09-28T04:30:15;96736.21;;;9.47;100.00
56992;BME280;42885;49.754;18.636;2022-09-28T04:32:47;96732.05;;;9.45;100.00
56992;BME280;42885;49.754;18.636;2022-09-28T04:35:18;96725.92;;;9.34;100.00
56992;BME280;42885;49.754;18.636;2022-09-28T04:37:50;96722.01;;;9.34;100.00
56992;BME280;42885;49.754;18.636;2022-09-28T04:40:21;96727.98;;;9.14;100.00
56992;BME280;42885;49.754;18.636;2022-09-28T04:42:54;96735.60;;;9.00;100.00
56992;BME280;42885;49.754;18.636;2022-09-28T04:45:26;96738.08;;;9.07;100.00
56992;BME280;42885;49.754;18.636;2022-09-28T04:47:58;96729.91;;;9.06;100.00
56992;BME280;42885;49.754;18.636;2022-09-28T04:50:34;96727.72;;;9.17;100.00
56992;BME280;42885;49.754;18.636;2022-09-28T04:53:15;96739.47;;;9.17;100.00
56992;BME280;42885;49.754;18.636;2022-09-28T04:58:30;96741.05;;;9.02;100.00
56992;BME280;42885;49.754;18.636;2022-09-28T05:01:03;96743.78;;;9.01;100.00
56992;BME280;42885;49.754;18.636;2022-09-28T05:03:40;96748.66;;;8.94;100.00
56992;BME280;42885;49.754;18.636;2022-09-28T05:06:15;96748.88;;;9.02;100.00
56992;BME280;42885;49.754;18.636;2022-09-28T05:08:47;96750.30;;;9.01;100.00
56992;BME280;42885;49.754;18.636;2022-09-28T05:11:18;96750.17;;;9.08;100.00
56992;BME280;42885;49.754;18.636;2022-09-28T05:13:50;96746.85;;;9.12;100.00
56992;BME280;42885;49.754;18.636;2022-09-28T05:16:22;96760.73;;;9.06;100.00
56992;BME280;42885;49.754;18.636;2022-09-28T05:19:11;96757.06;;;9.03;100.00
56992;BME280;42885;49.754;18.636;2022-09-28T05:21:44;96757.99;;;9.14;100.00
56992;BME280;42885;49.754;18.636;2022-09-28T05:24:15;96762.72;;;9.26;100.00
56992;BME280;42885;49.754;18.636;2022-09-28T05:26:48;96762.23;;;9.32;100.00
56992;BME280;42885;49.754;18.636;2022-09-28T05:29:19;96756.16;;;9.37;100.00
56992;BME280;42885;49.754;18.636;2022-09-28T05:31:52;96756.17;;;9.31;100.00
56992;BME280;42885;49.754;18.636;2022-09-28T05:34:30;96747.16;;;9.35;100.00
56992;BME280;42885;49.754;18.636;2022-09-28T05:37:01;96748.08;;;9.46;100.00
56992;BME280;42885;49.754;18.636;2022-09-28T05:39:33;96746.98;;;9.54;100.00
56992;BME280;42885;49.754;18.636;2022-09-28T05:42:03;96745.04;;;9.62;100.00
56992;BME280;42885;49.754;18.636;2022-09-28T05:44:37;96740.40;;;9.71;100.00
56992;BME280;42885;49.754;18.636;2022-09-28T05:47:07;96736.09;;;10.03;100.00
56992;BME280;42885;49.754;18.636;2022-09-28T05:49:39;96745.50;;;10.15;100.00
56992;BME280;42885;49.754;18.636;2022-09-28T05:52:11;96753.64;;;10.28;100.00
56992;BME280;42885;49.754;18.636;2022-09-28T05:54:42;96747.98;;;10.38;100.00
56992;BME280;42885;49.754;18.636;2022-09-28T05:57:14;96754.96;;;10.49;100.00
56992;BME280;42885;49.754;18.636;2022-09-28T05:59:45;96755.09;;;10.79;100.00
56992;BME280;42885;49.754;18.636;2022-09-28T06:02:17;96751.23;;;10.98;100.00
56992;BME280;42885;49.754;18.636;2022-09-28T06:04:48;96747.50;;;11.17;100.00
56992;BME280;42885;49.754;18.636;2022-09-28T06:07:20;96747.97;;;11.16;100.00
56992;BME280;42885;49.754;18.636;2022-09-28T06:09:52;96751.39;;;11.32;100.00
56992;BME280;42885;49.754;18.636;2022-09-28T06:12:25;96748.16;;;11.34;100.00
56992;BME280;42885;49.754;18.636;2022-09-28T06:14:58;96747.37;;;11.28;100.00
56992;BME280;42885;49.754;18.636;2022-09-28T06:17:30;96745.94;;;11.29;100.00
56992;BME280;42885;49.754;18.636;2022-09-28T06:20:18;96749.28;;;11.16;100.00
56992;BME280;42885;49.754;18.636;2022-09-28T06:22:52;96739.05;;;11.28;100.00
56992;BME280;42885;49.754;18.636;2022-09-28T06:25:24;96738.41;;;11.56;100.00
56992;BME280;42885;49.754;18.636;2022-09-28T06:28:11;96737.72;;;11.74;100.00
56992;BME280;42885;49.754;18.636;2022-09-28T06:30:36;96731.64;;;11.93;100.00
56992;BME280;42885;49.754;18.636;2022-09-28T06:33:13;96723.56;;;12.10;100.00
56992;BME280;42885;49.754;18.636;2022-09-28T06:35:45;96715.72;;;12.34;100.00
56992;BME280;42885;49.754;18.636;2022-09-28T06:38:16;96725.08;;;12.98;100.00
56992;BME280;42885;49.754;18.636;2022-09-28T06:40:47;96725.55;;;12.22;100.00
56992;BME280;42885;49.754;18.636;2022-09-28T06:43:17;96728.73;;;11.96;100.00
56992;BME280;42885;49.754;18.636;2022-09-28T06:46:08;96723.70;;;11.98;100.00
56992;BME280;42885;49.754;18.636;2022-09-28T06:48:59;96720.47;;;12.10;100.00
56992;BME280;42885;49.754;18.636;2022-09-28T06:51:41;96723.02;;;11.96;100.00
56992;BME280;42885;49.754;18.636;2022-09-28T06:54:14;96718.53;;;12.03;100.00
56992;BME280;42885;49.754;18.636;2022-09-28T06:56:47;96716.12;;;12.15;100.00
56992;BME280;42885;49.754;18.636;2022-09-28T06:59:18;96716.83;;;12.31;100.00
56992;BME280;42885;49.754;18.636;2022-09-28T07:01:49;96721.39;;;12.29;100.00
56992;BME280;42885;49.754;18.636;2022-09-28T07:04:24;96720.83;;;12.35;100.00
56992;BME280;42885;49.754;18.636;2022-09-28T07:07:13;96721.09;;;12.32;100.00
56992;BME280;42885;49.754;18.636;2022-09-28T07:09:52;96721.09;;;12.32;100.00
56992;BME280;42885;49.754;18.636;2022-09-28T07:12:25;96734.61;;;12.47;100.00
56992;BME280;42885;49.754;18.636;2022-09-28T07:14:57;96730.16;;;12.72;100.00
56992;BME280;42885;49.754;18.636;2022-09-28T07:17:30;96727.61;;;12.90;100.00
56992;BME280;42885;49.754;18.636;2022-09-28T07:20:04;96728.13;;;13.07;100.00
56992;BME280;42885;49.754;18.636;2022-09-28T07:22:35;96732.70;;;13.19;100.00
56992;BME280;42885;49.754;18.636;2022-09-28T07:25:08;96736.24;;;13.14;100.00
56992;BME280;42885;49.754;18.636;2022-09-28T07:27:46;96735.23;;;13.11;100.00
56992;BME280;42885;49.754;18.636;2022-09-28T07:30:35;96726.42;;;13.02;100.00
56992;BME280;42885;49.754;18.636;2022-09-28T07:33:16;96731.55;;;12.90;100.00
56992;BME280;42885;49.754;18.636;2022-09-28T07:35:58;96725.95;;;12.89;100.00
56992;BME280;42885;49.754;18.636;2022-09-28T07:38:33;96719.32;;;12.99;100.00
56992;BME280;42885;49.754;18.636;2022-09-28T07:41:04;96715.31;;;13.04;100.00
56992;BME280;42885;49.754;18.636;2022-09-28T07:43:43;96709.41;;;13.06;100.00
56992;BME280;42885;49.754;18.636;2022-09-28T07:46:14;96700.64;;;13.16;100.00
56992;BME280;42885;49.754;18.636;2022-09-28T07:48:47;96696.41;;;13.33;100.00
56992;BME280;42885;49.754;18.636;2022-09-28T07:51:25;96702.46;;;13.47;100.00
56992;BME280;42885;49.754;18.636;2022-09-28T07:54:00;96695.55;;;13.46;100.00
56992;BME280;42885;49.754;18.636;2022-09-28T07:56:37;96692.28;;;13.85;100.00
56992;BME280;42885;49.754;18.636;2022-09-28T07:59:24;96683.34;;;13.78;100.00
56992;BME280;42885;49.754;18.636;2022-09-28T08:01:57;96680.23;;;14.00;100.00
56992;BME280;42885;49.754;18.636;2022-09-28T08:04:28;96674.76;;;14.20;100.00
56992;BME280;42885;49.754;18.636;2022-09-28T08:06:59;96668.78;;;14.10;100.00
56992;BME280;42885;49.754;18.636;2022-09-28T08:09:31;96667.37;;;14.50;100.00
56992;BME280;42885;49.754;18.636;2022-09-28T08:12:21;96669.20;;;14.54;100.00
56992;BME280;42885;49.754;18.636;2022-09-28T08:15:10;96674.02;;;14.67;100.00
56992;BME280;42885;49.754;18.636;2022-09-28T08:17:51;96671.88;;;15.13;100.00
56992;BME280;42885;49.754;18.636;2022-09-28T08:20:24;96680.48;;;15.28;100.00
56992;BME280;42885;49.754;18.636;2022-09-28T08:23:15;96675.63;;;14.64;100.00
56992;BME280;42885;49.754;18.636;2022-09-28T08:25:47;96679.52;;;15.33;100.00
56992;BME280;42885;49.754;18.636;2022-09-28T08:28:18;96682.16;;;15.46;100.00
56992;BME280;42885;49.754;18.636;2022-09-28T08:30:52;96676.23;;;15.52;99.71
56992;BME280;42885;49.754;18.636;2022-09-28T08:33:41;96691.86;;;15.28;98.81
56992;BME280;42885;49.754;18.636;2022-09-28T08:36:25;96686.02;;;15.04;100.00
56992;BME280;42885;49.754;18.636;2022-09-28T08:39:10;96680.98;;;15.32;96.42
56992;BME280;42885;49.754;18.636;2022-09-28T08:42:20;96684.48;;;15.78;100.00
56992;BME280;42885;49.754;18.636;2022-09-28T08:45:10;96686.45;;;15.55;100.00
56992;BME280;42885;49.754;18.636;2022-09-28T08:51:09;96693.57;;;14.91;100.00
56992;BME280;42885;49.754;18.636;2022-09-28T08:53:56;96685.69;;;15.03;100.00
56992;BME280;42885;49.754;18.636;2022-09-28T08:56:39;96684.98;;;14.89;100.00
56992;BME280;42885;49.754;18.636;2022-09-28T08:59:20;96680.88;;;14.90;100.00
56992;BME280;42885;49.754;18.636;2022-09-28T09:01:54;96682.17;;;14.82;100.00
56992;BME280;42885;49.754;18.636;2022-09-28T09:04:25;96684.23;;;15.05;100.00
56992;BME280;42885;49.754;18.636;2022-09-28T09:07:09;96675.64;;;14.98;100.00
56992;BME280;42885;49.754;18.636;2022-09-28T09:09:46;96673.78;;;14.86;100.00
56992;BME280;42885;49.754;18.636;2022-09-28T09:12:34;96678.55;;;14.79;100.00
56992;BME280;42885;49.754;18.636;2022-09-28T09:15:20;96676.36;;;15.25;100.00
56992;BME280;42885;49.754;18.636;2022-09-28T09:17:59;96673.38;;;15.12;100.00
56992;BME280;42885;49.754;18.636;2022-09-28T09:20:44;96668.49;;;15.46;100.00
56992;BME280;42885;49.754;18.636;2022-09-28T09:23:37;96668.03;;;15.92;100.00
56992;BME280;42885;49.754;18.636;2022-09-28T09:26:15;96669.14;;;16.27;100.00
56992;BME280;42885;49.754;18.636;2022-09-28T09:34:28;96650.36;;;17.33;92.25
56992;BME280;42885;49.754;18.636;2022-09-28T09:43:29;96654.77;;;17.14;82.64
56992;BME280;42885;49.754;18.636;2022-09-28T09:46:15;96648.27;;;17.71;85.12
56992;BME280;42885;49.754;18.636;2022-09-28T09:49:14;96644.67;;;18.22;79.84
56992;BME280;42885;49.754;18.636;2022-09-28T09:52:06;96638.93;;;17.99;81.08
56992;BME280;42885;49.754;18.636;2022-09-28T09:54:43;96638.74;;;17.39;85.40
56992;BME280;42885;49.754;18.636;2022-09-28T09:57:43;96638.85;;;17.22;87.42
56992;BME280;42885;49.754;18.636;2022-09-28T10:00:29;96645.41;;;16.99;86.40
56992;BME280;42885;49.754;18.636;2022-09-28T10:03:02;96650.85;;;16.70;93.58
56992;BME280;42885;49.754;18.636;2022-09-28T10:05:36;96648.69;;;16.73;96.71
56992;BME280;42885;49.754;18.636;2022-09-28T10:08:11;96651.74;;;16.89;91.52
56992;BME280;42885;49.754;18.636;2022-09-28T10:11:04;96649.17;;;16.77;94.38
56992;BME280;42885;49.754;18.636;2022-09-28T10:13:37;96650.20;;;17.03;98.87
56992;BME280;42885;49.754;18.636;2022-09-28T10:16:10;96642.06;;;17.13;91.36
56992;BME280;42885;49.754;18.636;2022-09-28T10:18:42;96638.01;;;17.26;88.70
56992;BME280;42885;49.754;18.636;2022-09-28T10:21:31;96635.93;;;17.40;82.83
56992;BME280;42885;49.754;18.636;2022-09-28T10:24:46;96628.27;;;17.26;88.09
56992;BME280;42885;49.754;18.636;2022-09-28T10:27:22;96633.50;;;17.34;87.84
56992;BME280;42885;49.754;18.636;2022-09-28T10:32:41;96614.11;;;17.61;83.14
56992;BME280;42885;49.754;18.636;2022-09-28T10:35:28;96611.05;;;17.73;82.01
56992;BME280;42885;49.754;18.636;2022-09-28T10:38:04;96610.78;;;17.64;88.74
56992;BME280;42885;49.754;18.636;2022-09-28T10:40:44;96602.19;;;17.85;91.21
56992;BME280;42885;49.754;18.636;2022-09-28T10:43:29;96594.36;;;18.22;87.34
56992;BME280;42885;49.754;18.636;2022-09-28T10:46:11;96587.56;;;18.53;84.06
56992;BME280;42885;49.754;18.636;2022-09-28T10:48:52;96586.08;;;18.25;85.47
56992;BME280;42885;49.754;18.636;2022-09-28T10:51:47;96572.88;;;18.98;84.04
56992;BME280;42885;49.754;18.636;2022-09-28T10:54:27;96572.03;;;19.02;79.11
56992;BME280;42885;49.754;18.636;2022-09-28T10:57:00;96555.29;;;19.63;77.55
56992;BME280;42885;49.754;18.636;2022-09-28T10:59:42;96561.75;;;19.53;81.82
56992;BME280;42885;49.754;18.636;2022-09-28T11:02:31;96557.89;;;19.06;71.76
56992;BME280;42885;49.754;18.636;2022-09-28T11:05:06;96554.81;;;20.10;68.24
56992;BME280;42885;49.754;18.636;2022-09-28T11:07:45;96552.97;;;20.28;70.74
56992;BME280;42885;49.754;18.636;2022-09-28T11:10:27;96566.02;;;20.05;71.17
56992;BME280;42885;49.754;18.636;2022-09-28T11:13:00;96563.88;;;20.22;65.54
56992;BME280;42885;49.754;18.636;2022-09-28T11:15:32;96554.91;;;20.54;60.75
56992;BME280;42885;49.754;18.636;2022-09-28T11:18:23;96557.01;;;20.66;64.39
56992;BME280;42885;49.754;18.636;2022-09-28T11:20:51;96557.42;;;20.45;60.19
56992;BME280;42885;49.754;18.636;2022-09-28T11:23:29;96552.50;;;20.00;61.83
56992;BME280;42885;49.754;18.636;2022-09-28T11:26:04;96540.14;;;19.67;63.64
56992;BME280;42885;49.754;18.636;2022-09-28T11:28:38;96545.02;;;19.64;64.38
56992;BME280;42885;49.754;18.636;2022-09-28T11:31:12;96542.38;;;19.53;70.58
56992;BME280;42885;49.754;18.636;2022-09-28T11:33:46;96543.86;;;19.34;69.95
56992;BME280;42885;49.754;18.636;2022-09-28T11:36:37;96532.14;;;19.10;67.41
56992;BME280;42885;49.754;18.636;2022-09-28T11:39:30;96532.28;;;19.42;67.42
56992;BME280;42885;49.754;18.636;2022-09-28T11:42:10;96537.28;;;19.87;62.20
56992;BME280;42885;49.754;18.636;2022-09-28T11:44:51;96534.00;;;19.38;68.65
56992;BME280;42885;49.754;18.636;2022-09-28T11:47:44;96529.05;;;18.92;71.83
56992;BME280;42885;49.754;18.636;2022-09-28T11:55:39;96531.51;;;19.76;70.74
56992;BME280;42885;49.754;18.636;2022-09-28T12:01:51;96524.13;;;18.78;74.34
56992;BME280;42885;49.754;18.636;2022-09-28T12:04:30;96525.42;;;18.45;76.98
56992;BME280;42885;49.754;18.636;2022-09-28T12:07:35;96522.53;;;18.25;83.03
56992;BME280;42885;49.754;18.636;2022-09-28T12:13:02;96517.78;;;19.05;78.46
56992;BME280;42885;49.754;18.636;2022-09-28T12:18:29;96515.07;;;18.50;75.08
56992;BME280;42885;49.754;18.636;2022-09-28T12:22:08;96515.52;;;18.43;75.09
56992;BME280;42885;49.754;18.636;2022-09-28T12:23:50;96516.31;;;18.80;76.64
56992;BME280;42885;49.754;18.636;2022-09-28T12:29:22;96518.35;;;18.89;73.98
56992;BME280;42885;49.754;18.636;2022-09-28T12:31:56;96517.11;;;19.18;81.82
56992;BME280;42885;49.754;18.636;2022-09-28T12:34:27;96520.75;;;18.95;78.04
56992;BME280;42885;49.754;18.636;2022-09-28T12:43:13;96516.56;;;18.96;72.63
56992;BME280;42885;49.754;18.636;2022-09-28T12:48:37;96483.56;;;21.83;56.23
56992;BME280;42885;49.754;18.636;2022-09-28T12:51:13;96479.40;;;21.17;53.80
56992;BME280;42885;49.754;18.636;2022-09-28T12:54:05;96500.77;;;19.89;63.27
56992;BME280;42885;49.754;18.636;2022-09-28T12:57:12;96510.66;;;19.16;67.69
56992;BME280;42885;49.754;18.636;2022-09-28T12:59:41;96496.73;;;18.49;71.33
56992;BME280;42885;49.754;18.636;2022-09-28T13:02:31;96501.03;;;18.09;74.47
56992;BME280;42885;49.754;18.636;2022-09-28T13:08:12;96500.06;;;17.75;76.67
56992;BME280;42885;49.754;18.636;2022-09-28T13:19:32;96496.48;;;17.38;87.13
56992;BME280;42885;49.754;18.636;2022-09-28T13:22:12;96498.34;;;17.33;87.51
56992;BME280;42885;49.754;18.636;2022-09-28T13:24:34;96501.58;;;17.74;86.21
56992;BME280;42885;49.754;18.636;2022-09-28T13:27:12;96505.43;;;17.52;88.24
56992;BME280;42885;49.754;18.636;2022-09-28T13:29:42;96504.16;;;17.48;89.19
56992;BME280;42885;49.754;18.636;2022-09-28T13:32:13;96501.15;;;17.51;92.22
56992;BME280;42885;49.754;18.636;2022-09-28T13:34:47;96496.20;;;17.82;91.78
56992;BME280;42885;49.754;18.636;2022-09-28T13:37:22;96495.39;;;18.12;86.33
56992;BME280;42885;49.754;18.636;2022-09-28T13:39:57;96481.35;;;18.59;81.78
56992;BME280;42885;49.754;18.636;2022-09-28T13:45:29;96472.41;;;18.71;80.06
56992;BME280;42885;49.754;18.636;2022-09-28T13:48:11;96464.89;;;19.18;76.35
56992;BME280;42885;49.754;18.636;2022-09-28T13:51:08;96457.09;;;21.32;62.07
56992;BME280;42885;49.754;18.636;2022-09-28T13:53:53;96459.73;;;19.74;72.20
56992;BME280;42885;49.754;18.636;2022-09-28T13:56:29;96456.77;;;19.37;78.20
56992;BME280;42885;49.754;18.636;2022-09-28T13:59:07;96460.66;;;19.13;78.20
56992;BME280;42885;49.754;18.636;2022-09-28T14:01:37;96463.55;;;18.96;77.68
56992;BME280;42885;49.754;18.636;2022-09-28T14:04:17;96453.34;;;18.71;80.84
56992;BME280;42885;49.754;18.636;2022-09-28T14:06:56;96458.17;;;18.35;87.84
56992;BME280;42885;49.754;18.636;2022-09-28T14:09:48;96456.77;;;18.18;86.54
56992;BME280;42885;49.754;18.636;2022-09-28T14:12:28;96463.30;;;17.81;90.81
56992;BME280;42885;49.754;18.636;2022-09-28T14:14:59;96460.84;;;17.94;92.03
56992;BME280;42885;49.754;18.636;2022-09-28T14:17:45;96457.84;;;17.82;92.80
56992;BME280;42885;49.754;18.636;2022-09-28T14:20:20;96454.67;;;17.83;99.29
56992;BME280;42885;49.754;18.636;2022-09-28T14:23:57;96457.02;;;17.67;100.00
56992;BME280;42885;49.754;18.636;2022-09-28T14:25:45;96452.64;;;17.74;96.46
56992;BME280;42885;49.754;18.636;2022-09-28T14:28:41;96455.37;;;17.81;93.94
56992;BME280;42885;49.754;18.636;2022-09-28T14:31:16;96443.81;;;18.08;92.15
56992;BME280;42885;49.754;18.636;2022-09-28T14:33:53;96446.28;;;18.46;89.90
56992;BME280;42885;49.754;18.636;2022-09-28T14:36:33;96442.81;;;18.67;91.17
56992;BME280;42885;49.754;18.636;2022-09-28T14:39:19;96437.34;;;18.69;87.59
56992;BME280;42885;49.754;18.636;2022-09-28T14:42:15;96428.61;;;18.75;85.74
56992;BME280;42885;49.754;18.636;2022-09-28T14:47:37;96439.07;;;18.94;85.77
56992;BME280;42885;49.754;18.636;2022-09-28T14:50:24;96442.61;;;18.80;86.69
56992;BME280;42885;49.754;18.636;2022-09-28T14:53:02;96436.61;;;19.15;87.34
56992;BME280;42885;49.754;18.636;2022-09-28T14:55:32;96432.73;;;18.45;89.50